Aviation Digital Data Service (ADDS)

Output produced by METARs form (0620 UTC 26 April 2015)
found at http://www.aviationweather.gov/adds/metars/
 
KBOS 260537Z 2606/2712 33005KT P6SM BKN080 
     FM261600 05006KT P6SM BKN060 
     FM261900 10007KT P6SM BKN050 
     FM270100 VRB03KT P6SM BKN050